sensor_id;sensor_type;location;lat;lon;timestamp;pressure;altitude;pressure_sealevel;temperature;humidity
49657;BME280;71194;38.900;-77.124;2023-08-24T00:02:16;100313.85;;;29.97;30.30
49657;BME280;71194;38.900;-77.124;2023-08-24T00:04:43;100312.85;;;29.92;31.26
49657;BME280;71194;38.900;-77.124;2023-08-24T00:07:11;100304.95;;;29.98;31.57
49657;BME280;71194;38.900;-77.124;2023-08-24T00:09:39;100296.75;;;29.48;31.91
49657;BME280;71194;38.900;-77.124;2023-08-24T00:12:07;100287.91;;;29.67;31.91
49657;BME280;71194;38.900;-77.124;2023-08-24T00:14:35;100288.01;;;29.57;32.62
49657;BME280;71194;38.900;-77.124;2023-08-24T00:17:03;100290.56;;;29.67;33.49
49657;BME280;71194;38.900;-77.124;2023-08-24T00:19:31;100290.55;;;29.46;34.34
49657;BME280;71194;38.900;-77.124;2023-08-24T00:21:59;100290.58;;;29.41;34.57
49657;BME280;71194;38.900;-77.124;2023-08-24T00:24:27;100299.73;;;28.97;34.87
49657;BME280;71194;38.900;-77.124;2023-08-24T00:26:55;100311.98;;;28.95;35.67
49657;BME280;71194;38.900;-77.124;2023-08-24T00:29:23;100318.40;;;28.84;36.30
49657;BME280;71194;38.900;-77.124;2023-08-24T00:31:50;100317.49;;;28.66;36.29
49657;BME280;71194;38.900;-77.124;2023-08-24T00:34:18;100314.87;;;28.89;36.63
49657;BME280;71194;38.900;-77.124;2023-08-24T00:36:46;100310.47;;;28.56;36.73
49657;BME280;71194;38.900;-77.124;2023-08-24T00:39:14;100311.52;;;28.60;36.68
49657;BME280;71194;38.900;-77.124;2023-08-24T00:41:42;100326.50;;;28.72;36.76
49657;BME280;71194;38.900;-77.124;2023-08-24T00:44:10;100339.64;;;28.52;36.72
49657;BME280;71194;38.900;-77.124;2023-08-24T00:46:38;100345.29;;;28.47;36.73
49657;BME280;71194;38.900;-77.124;2023-08-24T00:49:05;100348.52;;;28.61;36.73
49657;BME280;71194;38.900;-77.124;2023-08-24T00:51:34;100359.10;;;28.67;36.63
49657;BME280;71194;38.900;-77.124;2023-08-24T00:54:02;100360.23;;;28.70;36.66
49657;BME280;71194;38.900;-77.124;2023-08-24T00:56:30;100365.02;;;28.37;36.70
49657;BME280;71194;38.900;-77.124;2023-08-24T00:58:58;100365.91;;;28.81;36.40
49657;BME280;71194;38.900;-77.124;2023-08-24T01:01:26;100370.28;;;28.74;36.22
49657;BME280;71194;38.900;-77.124;2023-08-24T01:03:54;100368.91;;;28.81;36.14
49657;BME280;71194;38.900;-77.124;2023-08-24T01:06:23;100376.37;;;28.68;36.21
49657;BME280;71194;38.900;-77.124;2023-08-24T01:08:51;100376.36;;;28.65;36.23
49657;BME280;71194;38.900;-77.124;2023-08-24T01:11:25;100380.67;;;28.82;36.26
49657;BME280;71194;38.900;-77.124;2023-08-24T01:14:03;100382.45;;;28.74;36.14
49657;BME280;71194;38.900;-77.124;2023-08-24T01:16:34;100379.19;;;28.72;36.11
49657;BME280;71194;38.900;-77.124;2023-08-24T01:19:02;100390.38;;;28.89;35.93
49657;BME280;71194;38.900;-77.124;2023-08-24T01:21:32;100395.35;;;28.85;35.99
49657;BME280;71194;38.900;-77.124;2023-08-24T01:24:08;100405.75;;;28.75;36.01
49657;BME280;71194;38.900;-77.124;2023-08-24T01:26:39;100405.17;;;28.80;35.88
49657;BME280;71194;38.900;-77.124;2023-08-24T01:29:08;100401.89;;;28.55;36.13
49657;BME280;71194;38.900;-77.124;2023-08-24T01:31:36;100406.01;;;28.79;35.79
49657;BME280;71194;38.900;-77.124;2023-08-24T01:34:03;100401.23;;;28.64;35.93
49657;BME280;71194;38.900;-77.124;2023-08-24T01:36:31;100409.37;;;28.72;35.78
49657;BME280;71194;38.900;-77.124;2023-08-24T01:39:11;100409.26;;;28.84;35.93
49657;BME280;71194;38.900;-77.124;2023-08-24T01:41:41;100400.92;;;28.46;35.99
49657;BME280;71194;38.900;-77.124;2023-08-24T01:44:13;100400.75;;;28.43;36.01
49657;BME280;71194;38.900;-77.124;2023-08-24T01:46:43;100407.31;;;28.74;35.86
49657;BME280;71194;38.900;-77.124;2023-08-24T01:49:16;100399.08;;;28.72;35.78
49657;BME280;71194;38.900;-77.124;2023-08-24T01:51:44;100395.17;;;28.96;35.75
49657;BME280;71194;38.900;-77.124;2023-08-24T01:54:13;100408.31;;;28.66;35.56
49657;BME280;71194;38.900;-77.124;2023-08-24T01:56:41;100405.27;;;28.79;35.50
49657;BME280;71194;38.900;-77.124;2023-08-24T01:59:08;100395.68;;;28.82;35.44
49657;BME280;71194;38.900;-77.124;2023-08-24T02:01:36;100393.27;;;28.67;35.58
49657;BME280;71194;38.900;-77.124;2023-08-24T02:04:04;100392.82;;;28.56;35.58
49657;BME280;71194;38.900;-77.124;2023-08-24T02:06:32;100384.91;;;28.72;35.54
49657;BME280;71194;38.900;-77.124;2023-08-24T02:09:00;100377.74;;;28.61;35.72
49657;BME280;71194;38.900;-77.124;2023-08-24T02:11:27;100377.46;;;28.39;35.64
49657;BME280;71194;38.900;-77.124;2023-08-24T02:13:55;100369.76;;;28.36;35.70
49657;BME280;71194;38.900;-77.124;2023-08-24T02:16:23;100364.49;;;28.27;35.76
49657;BME280;71194;38.900;-77.124;2023-08-24T02:18:51;100363.47;;;28.28;35.63
49657;BME280;71194;38.900;-77.124;2023-08-24T02:21:19;100363.41;;;28.52;35.61
49657;BME280;71194;38.900;-77.124;2023-08-24T02:23:46;100359.63;;;28.37;35.76
49657;BME280;71194;38.900;-77.124;2023-08-24T02:26:15;100368.50;;;28.53;35.84
49657;BME280;71194;38.900;-77.124;2023-08-24T02:28:42;100375.39;;;28.45;35.62
49657;BME280;71194;38.900;-77.124;2023-08-24T02:31:10;100372.32;;;28.49;35.53
49657;BME280;71194;38.900;-77.124;2023-08-24T02:33:38;100365.93;;;28.54;35.40
49657;BME280;71194;38.900;-77.124;2023-08-24T02:36:07;100366.79;;;28.49;35.45
49657;BME280;71194;38.900;-77.124;2023-08-24T02:38:34;100375.71;;;28.41;35.42
49657;BME280;71194;38.900;-77.124;2023-08-24T02:41:03;100377.61;;;28.40;35.30
49657;BME280;71194;38.900;-77.124;2023-08-24T02:43:32;100385.89;;;28.49;35.18
49657;BME280;71194;38.900;-77.124;2023-08-24T02:46:01;100388.41;;;28.32;35.23
49657;BME280;71194;38.900;-77.124;2023-08-24T02:48:30;100393.89;;;28.30;35.04
49657;BME280;71194;38.900;-77.124;2023-08-24T02:50:58;100402.88;;;28.29;34.87
49657;BME280;71194;38.900;-77.124;2023-08-24T02:53:26;100408.86;;;28.19;34.61
49657;BME280;71194;38.900;-77.124;2023-08-24T02:55:55;100416.43;;;28.37;34.61
49657;BME280;71194;38.900;-77.124;2023-08-24T02:58:23;100422.04;;;28.64;34.47
49657;BME280;71194;38.900;-77.124;2023-08-24T03:00:50;100421.94;;;28.44;34.18
49657;BME280;71194;38.900;-77.124;2023-08-24T03:03:18;100425.03;;;28.42;34.07
49657;BME280;71194;38.900;-77.124;2023-08-24T03:05:55;100426.90;;;28.44;33.98
49657;BME280;71194;38.900;-77.124;2023-08-24T03:08:23;100422.50;;;28.23;33.93
49657;BME280;71194;38.900;-77.124;2023-08-24T03:10:51;100416.95;;;28.25;33.85
49657;BME280;71194;38.900;-77.124;2023-08-24T03:13:19;100418.72;;;28.36;33.67
49657;BME280;71194;38.900;-77.124;2023-08-24T03:15:47;100413.67;;;28.21;33.67
49657;BME280;71194;38.900;-77.124;2023-08-24T03:18:16;100405.77;;;28.34;33.68
49657;BME280;71194;38.900;-77.124;2023-08-24T03:20:45;100391.17;;;28.26;33.66
49657;BME280;71194;38.900;-77.124;2023-08-24T03:23:14;100386.90;;;28.46;33.67
49657;BME280;71194;38.900;-77.124;2023-08-24T03:25:42;100387.45;;;28.22;33.61
49657;BME280;71194;38.900;-77.124;2023-08-24T03:28:10;100395.74;;;28.45;33.49
49657;BME280;71194;38.900;-77.124;2023-08-24T03:30:39;100394.29;;;28.46;33.45
49657;BME280;71194;38.900;-77.124;2023-08-24T03:33:07;100390.65;;;28.57;33.37
49657;BME280;71194;38.900;-77.124;2023-08-24T03:35:36;100383.43;;;28.33;33.38
49657;BME280;71194;38.900;-77.124;2023-08-24T03:38:04;100381.70;;;28.16;33.34
49657;BME280;71194;38.900;-77.124;2023-08-24T03:40:33;100383.79;;;28.43;33.32
49657;BME280;71194;38.900;-77.124;2023-08-24T03:43:02;100387.93;;;28.56;33.50
49657;BME280;71194;38.900;-77.124;2023-08-24T03:45:29;100390.00;;;28.51;33.69
49657;BME280;71194;38.900;-77.124;2023-08-24T03:47:57;100391.13;;;28.61;33.64
49657;BME280;71194;38.900;-77.124;2023-08-24T03:50:25;100394.70;;;28.21;33.85
49657;BME280;71194;38.900;-77.124;2023-08-24T03:52:54;100398.75;;;28.27;33.81
49657;BME280;71194;38.900;-77.124;2023-08-24T03:55:22;100400.24;;;28.15;33.93
49657;BME280;71194;38.900;-77.124;2023-08-24T03:57:50;100400.44;;;28.16;33.93
49657;BME280;71194;38.900;-77.124;2023-08-24T04:00:18;100395.74;;;28.43;33.85
49657;BME280;71194;38.900;-77.124;2023-08-24T04:02:46;100390.06;;;28.18;33.88
49657;BME280;71194;38.900;-77.124;2023-08-24T04:05:14;100385.99;;;27.97;33.87
49657;BME280;71194;38.900;-77.124;2023-08-24T04:07:42;100378.18;;;28.43;33.86
49657;BME280;71194;38.900;-77.124;2023-08-24T04:10:10;100376.95;;;28.22;33.92
49657;BME280;71194;38.900;-77.124;2023-08-24T04:12:38;100376.04;;;28.52;33.89
49657;BME280;71194;38.900;-77.124;2023-08-24T04:15:08;100372.91;;;28.17;34.07
49657;BME280;71194;38.900;-77.124;2023-08-24T04:17:37;100378.37;;;28.08;34.49
49657;BME280;71194;38.900;-77.124;2023-08-24T04:20:05;100382.68;;;28.17;34.34
49657;BME280;71194;38.900;-77.124;2023-08-24T04:22:33;100377.15;;;28.26;34.22
49657;BME280;71194;38.900;-77.124;2023-08-24T04:25:02;100372.77;;;28.25;34.21
49657;BME280;71194;38.900;-77.124;2023-08-24T04:27:29;100363.77;;;28.11;34.37
49657;BME280;71194;38.900;-77.124;2023-08-24T04:29:58;100357.42;;;27.95;34.25
49657;BME280;71194;38.900;-77.124;2023-08-24T04:32:26;100353.15;;;28.18;34.31
49657;BME280;71194;38.900;-77.124;2023-08-24T04:34:54;100350.47;;;28.12;34.39
49657;BME280;71194;38.900;-77.124;2023-08-24T04:37:22;100338.60;;;28.17;34.28
49657;BME280;71194;38.900;-77.124;2023-08-24T04:39:50;100332.23;;;28.00;34.53
49657;BME280;71194;38.900;-77.124;2023-08-24T04:42:18;100328.51;;;27.82;34.80
49657;BME280;71194;38.900;-77.124;2023-08-24T04:44:46;100326.14;;;27.69;35.09
49657;BME280;71194;38.900;-77.124;2023-08-24T04:47:14;100321.23;;;27.67;35.10
49657;BME280;71194;38.900;-77.124;2023-08-24T04:49:42;100319.29;;;27.58;35.22
49657;BME280;71194;38.900;-77.124;2023-08-24T04:52:10;100318.90;;;27.30;35.32
49657;BME280;71194;38.900;-77.124;2023-08-24T04:54:38;100322.58;;;27.51;35.35
49657;BME280;71194;38.900;-77.124;2023-08-24T04:57:06;100325.73;;;27.67;35.61
49657;BME280;71194;38.900;-77.124;2023-08-24T04:59:34;100331.00;;;27.70;35.60
49657;BME280;71194;38.900;-77.124;2023-08-24T05:02:02;100336.96;;;27.58;35.50
49657;BME280;71194;38.900;-77.124;2023-08-24T05:04:30;100344.87;;;27.77;35.66
49657;BME280;71194;38.900;-77.124;2023-08-24T05:06:59;100354.83;;;27.46;35.76
49657;BME280;71194;38.900;-77.124;2023-08-24T05:09:27;100352.93;;;27.55;35.66
49657;BME280;71194;38.900;-77.124;2023-08-24T05:11:54;100347.73;;;27.69;35.99
49657;BME280;71194;38.900;-77.124;2023-08-24T05:14:23;100347.75;;;27.38;36.15
49657;BME280;71194;38.900;-77.124;2023-08-24T05:16:50;100347.10;;;27.65;36.28
49657;BME280;71194;38.900;-77.124;2023-08-24T05:19:18;100348.99;;;27.63;36.39
49657;BME280;71194;38.900;-77.124;2023-08-24T05:21:47;100345.32;;;27.44;36.36
49657;BME280;71194;38.900;-77.124;2023-08-24T05:24:15;100343.05;;;27.35;36.60
49657;BME280;71194;38.900;-77.124;2023-08-24T05:26:42;100348.36;;;27.60;36.74
49657;BME280;71194;38.900;-77.124;2023-08-24T05:29:10;100352.18;;;27.51;36.88
49657;BME280;71194;38.900;-77.124;2023-08-24T05:31:38;100350.97;;;27.70;36.71
49657;BME280;71194;38.900;-77.124;2023-08-24T05:34:06;100349.51;;;27.68;36.88
49657;BME280;71194;38.900;-77.124;2023-08-24T05:36:34;100349.52;;;27.63;37.07
49657;BME280;71194;38.900;-77.124;2023-08-24T05:39:02;100350.01;;;27.64;37.10
49657;BME280;71194;38.900;-77.124;2023-08-24T05:41:30;100338.78;;;27.45;36.97
49657;BME280;71194;38.900;-77.124;2023-08-24T05:43:58;100336.38;;;27.41;37.10
49657;BME280;71194;38.900;-77.124;2023-08-24T05:46:26;100329.59;;;27.56;37.28
49657;BME280;71194;38.900;-77.124;2023-08-24T05:48:54;100324.22;;;27.47;37.44
49657;BME280;71194;38.900;-77.124;2023-08-24T05:51:22;100321.59;;;27.65;37.57
49657;BME280;71194;38.900;-77.124;2023-08-24T05:53:50;100318.54;;;27.44;37.61
49657;BME280;71194;38.900;-77.124;2023-08-24T05:56:18;100308.67;;;27.42;37.71
49657;BME280;71194;38.900;-77.124;2023-08-24T05:58:46;100301.14;;;27.36;37.95
49657;BME280;71194;38.900;-77.124;2023-08-24T06:01:14;100301.15;;;27.18;38.21
49657;BME280;71194;38.900;-77.124;2023-08-24T06:03:42;100304.59;;;27.17;38.34
49657;BME280;71194;38.900;-77.124;2023-08-24T06:06:10;100307.86;;;27.41;38.38
49657;BME280;71194;38.900;-77.124;2023-08-24T06:08:38;100307.44;;;27.11;38.57
49657;BME280;71194;38.900;-77.124;2023-08-24T06:11:06;100314.99;;;27.05;38.73
49657;BME280;71194;38.900;-77.124;2023-08-24T06:13:34;100308.02;;;27.38;38.59
49657;BME280;71194;38.900;-77.124;2023-08-24T06:16:02;100308.90;;;27.42;38.63
49657;BME280;71194;38.900;-77.124;2023-08-24T06:18:30;100309.49;;;27.41;38.61
49657;BME280;71194;38.900;-77.124;2023-08-24T06:20:58;100304.73;;;27.39;38.57
49657;BME280;71194;38.900;-77.124;2023-08-24T06:23:26;100314.75;;;27.47;38.39
49657;BME280;71194;38.900;-77.124;2023-08-24T06:25:54;100311.49;;;27.18;38.40
49657;BME280;71194;38.900;-77.124;2023-08-24T06:28:22;100314.54;;;27.12;38.31
49657;BME280;71194;38.900;-77.124;2023-08-24T06:30:50;100313.73;;;27.14;38.12
49657;BME280;71194;38.900;-77.124;2023-08-24T06:33:18;100309.88;;;27.23;37.99
49657;BME280;71194;38.900;-77.124;2023-08-24T06:35:46;100314.74;;;27.31;38.14
49657;BME280;71194;38.900;-77.124;2023-08-24T06:38:15;100317.34;;;27.09;38.24
49657;BME280;71194;38.900;-77.124;2023-08-24T06:40:43;100307.82;;;27.17;38.10
49657;BME280;71194;38.900;-77.124;2023-08-24T06:43:11;100307.67;;;26.98;38.38
49657;BME280;71194;38.900;-77.124;2023-08-24T06:45:40;100311.51;;;27.04;38.32
49657;BME280;71194;38.900;-77.124;2023-08-24T06:48:08;100306.81;;;26.83;38.23
49657;BME280;71194;38.900;-77.124;2023-08-24T06:50:36;100294.73;;;27.13;38.13
49657;BME280;71194;38.900;-77.124;2023-08-24T06:53:04;100297.58;;;27.07;38.19
49657;BME280;71194;38.900;-77.124;2023-08-24T06:55:31;100293.92;;;26.99;38.33
49657;BME280;71194;38.900;-77.124;2023-08-24T06:58:00;100287.13;;;26.74;38.37
49657;BME280;71194;38.900;-77.124;2023-08-24T07:00:27;100286.34;;;26.81;38.51
49657;BME280;71194;38.900;-77.124;2023-08-24T07:02:55;100295.17;;;26.71;38.54
49657;BME280;71194;38.900;-77.124;2023-08-24T07:05:23;100288.57;;;26.70;38.59
49657;BME280;71194;38.900;-77.124;2023-08-24T07:07:51;100288.64;;;26.85;38.42
49657;BME280;71194;38.900;-77.124;2023-08-24T07:10:19;100291.85;;;26.72;38.37
49657;BME280;71194;38.900;-77.124;2023-08-24T07:12:47;100301.77;;;26.87;38.07
49657;BME280;71194;38.900;-77.124;2023-08-24T07:15:15;100298.78;;;26.83;38.03
49657;BME280;71194;38.900;-77.124;2023-08-24T07:17:43;100295.48;;;26.64;37.81
49657;BME280;71194;38.900;-77.124;2023-08-24T07:20:11;100291.86;;;26.93;37.63
49657;BME280;71194;38.900;-77.124;2023-08-24T07:22:39;100287.92;;;26.90;37.57
49657;BME280;71194;38.900;-77.124;2023-08-24T07:25:07;100286.00;;;26.86;37.45
49657;BME280;71194;38.900;-77.124;2023-08-24T07:27:35;100283.92;;;26.86;37.35
49657;BME280;71194;38.900;-77.124;2023-08-24T07:30:04;100278.00;;;26.84;37.38
49657;BME280;71194;38.900;-77.124;2023-08-24T07:32:32;100270.83;;;26.80;37.43
49657;BME280;71194;38.900;-77.124;2023-08-24T07:35:00;100268.53;;;26.94;37.33
49657;BME280;71194;38.900;-77.124;2023-08-24T07:37:28;100273.71;;;26.86;37.25
49657;BME280;71194;38.900;-77.124;2023-08-24T07:39:56;100274.81;;;27.11;37.22
49657;BME280;71194;38.900;-77.124;2023-08-24T07:42:24;100273.28;;;27.08;37.33
49657;BME280;71194;38.900;-77.124;2023-08-24T07:44:52;100267.66;;;27.22;37.22
49657;BME280;71194;38.900;-77.124;2023-08-24T07:47:20;100257.35;;;27.23;37.21
49657;BME280;71194;38.900;-77.124;2023-08-24T07:49:48;100249.59;;;26.82;37.45
49657;BME280;71194;38.900;-77.124;2023-08-24T07:52:16;100246.19;;;26.96;37.54
49657;BME280;71194;38.900;-77.124;2023-08-24T07:54:44;100244.44;;;26.94;37.67
49657;BME280;71194;38.900;-77.124;2023-08-24T07:57:12;100245.97;;;26.85;37.90
49657;BME280;71194;38.900;-77.124;2023-08-24T07:59:39;100247.48;;;27.04;37.72
49657;BME280;71194;38.900;-77.124;2023-08-24T08:02:07;100244.29;;;27.08;37.81
49657;BME280;71194;38.900;-77.124;2023-08-24T08:04:35;100235.59;;;27.13;37.78
49657;BME280;71194;38.900;-77.124;2023-08-24T08:07:03;100227.90;;;26.96;37.77
49657;BME280;71194;38.900;-77.124;2023-08-24T08:09:31;100225.03;;;26.91;37.82
49657;BME280;71194;38.900;-77.124;2023-08-24T08:11:59;100224.57;;;27.10;37.91
49657;BME280;71194;38.900;-77.124;2023-08-24T08:14:27;100223.22;;;27.12;37.94
49657;BME280;71194;38.900;-77.124;2023-08-24T08:16:55;100226.61;;;27.01;37.82
49657;BME280;71194;38.900;-77.124;2023-08-24T08:19:23;100224.22;;;26.98;38.15
49657;BME280;71194;38.900;-77.124;2023-08-24T08:21:51;100228.37;;;27.00;38.22
49657;BME280;71194;38.900;-77.124;2023-08-24T08:24:19;100234.13;;;27.06;38.28
49657;BME280;71194;38.900;-77.124;2023-08-24T08:26:47;100235.66;;;26.81;38.39
49657;BME280;71194;38.900;-77.124;2023-08-24T08:29:15;100235.35;;;26.79;38.39
49657;BME280;71194;38.900;-77.124;2023-08-24T08:31:43;100230.55;;;26.86;38.62
49657;BME280;71194;38.900;-77.124;2023-08-24T08:34:11;100231.77;;;26.81;38.68
49657;BME280;71194;38.900;-77.124;2023-08-24T08:36:39;100233.34;;;26.78;38.70
49657;BME280;71194;38.900;-77.124;2023-08-24T08:39:07;100230.21;;;26.82;38.62
49657;BME280;71194;38.900;-77.124;2023-08-24T08:41:41;100236.51;;;26.75;38.59
49657;BME280;71194;38.900;-77.124;2023-08-24T08:44:13;100238.34;;;26.69;38.52
49657;BME280;71194;38.900;-77.124;2023-08-24T08:46:42;100242.76;;;26.57;38.61
49657;BME280;71194;38.900;-77.124;2023-08-24T08:49:13;100242.86;;;26.62;38.42
49657;BME280;71194;38.900;-77.124;2023-08-24T08:51:41;100241.48;;;26.52;38.50
49657;BME280;71194;38.900;-77.124;2023-08-24T08:54:08;100241.98;;;26.47;38.44
49657;BME280;71194;38.900;-77.124;2023-08-24T08:56:36;100243.25;;;26.35;38.29
49657;BME280;71194;38.900;-77.124;2023-08-24T08:59:05;100247.35;;;26.65;38.18
49657;BME280;71194;38.900;-77.124;2023-08-24T09:01:34;100247.45;;;26.62;38.21
49657;BME280;71194;38.900;-77.124;2023-08-24T09:04:02;100244.80;;;26.38;38.18
49657;BME280;71194;38.900;-77.124;2023-08-24T09:06:31;100240.27;;;26.55;38.10
49657;BME280;71194;38.900;-77.124;2023-08-24T09:08:59;100232.13;;;26.57;37.78
49657;BME280;71194;38.900;-77.124;2023-08-24T09:11:27;100228.37;;;26.56;37.64
49657;BME280;71194;38.900;-77.124;2023-08-24T09:13:55;100231.01;;;26.57;37.46
49657;BME280;71194;38.900;-77.124;2023-08-24T09:16:23;100235.57;;;26.42;37.45
49657;BME280;71194;38.900;-77.124;2023-08-24T09:18:56;100241.04;;;26.47;37.05
49657;BME280;71194;38.900;-77.124;2023-08-24T09:21:24;100233.60;;;26.51;36.88
49657;BME280;71194;38.900;-77.124;2023-08-24T09:23:54;100233.41;;;26.56;36.73
49657;BME280;71194;38.900;-77.124;2023-08-24T09:26:28;100236.70;;;26.53;36.76
49657;BME280;71194;38.900;-77.124;2023-08-24T09:28:56;100240.43;;;26.49;36.68
49657;BME280;71194;38.900;-77.124;2023-08-24T09:31:24;100249.47;;;26.40;36.61
49657;BME280;71194;38.900;-77.124;2023-08-24T09:34:02;100260.81;;;26.57;36.37
49657;BME280;71194;38.900;-77.124;2023-08-24T09:36:32;100257.91;;;26.57;36.47
49657;BME280;71194;38.900;-77.124;2023-08-24T09:39:00;100248.94;;;26.43;36.60
49657;BME280;71194;38.900;-77.124;2023-08-24T09:41:38;100243.76;;;26.72;36.52
49657;BME280;71194;38.900;-77.124;2023-08-24T09:44:05;100245.05;;;26.47;36.51
49657;BME280;71194;38.900;-77.124;2023-08-24T09:46:34;100247.79;;;26.68;36.49
49657;BME280;71194;38.900;-77.124;2023-08-24T09:49:03;100241.06;;;26.53;36.29
49657;BME280;71194;38.900;-77.124;2023-08-24T09:51:33;100241.76;;;26.59;36.56
49657;BME280;71194;38.900;-77.124;2023-08-24T09:54:04;100238.97;;;26.39;36.36
49657;BME280;71194;38.900;-77.124;2023-08-24T09:56:35;100240.58;;;26.30;36.31
49657;BME280;71194;38.900;-77.124;2023-08-24T09:59:10;100239.62;;;26.29;36.22
49657;BME280;71194;38.900;-77.124;2023-08-24T10:01:40;100249.96;;;26.17;36.28
49657;BME280;71194;38.900;-77.124;2023-08-24T10:04:09;100258.78;;;26.24;36.22
49657;BME280;71194;38.900;-77.124;2023-08-24T10:06:38;100262.67;;;26.30;36.15
49657;BME280;71194;38.900;-77.124;2023-08-24T10:09:08;100270.75;;;26.41;36.03
49657;BME280;71194;38.900;-77.124;2023-08-24T10:11:43;100278.25;;;26.40;36.03
49657;BME280;71194;38.900;-77.124;2023-08-24T10:14:18;100285.10;;;26.52;35.90
49657;BME280;71194;38.900;-77.124;2023-08-24T10:16:47;100286.24;;;26.51;35.88
49657;BME280;71194;38.900;-77.124;2023-08-24T10:19:15;100295.05;;;26.46;35.91
49657;BME280;71194;38.900;-77.124;2023-08-24T10:21:45;100292.39;;;26.67;36.09
49657;BME280;71194;38.900;-77.124;2023-08-24T10:24:13;100281.64;;;26.34;35.99
49657;BME280;71194;38.900;-77.124;2023-08-24T10:26:44;100276.00;;;26.31;36.08
49657;BME280;71194;38.900;-77.124;2023-08-24T10:29:12;100276.51;;;26.24;36.09
49657;BME280;71194;38.900;-77.124;2023-08-24T10:31:41;100275.06;;;26.25;36.00
49657;BME280;71194;38.900;-77.124;2023-08-24T10:34:10;100277.72;;;26.47;36.03
49657;BME280;71194;38.900;-77.124;2023-08-24T10:36:39;100280.61;;;26.15;36.08
49657;BME280;71194;38.900;-77.124;2023-08-24T10:39:08;100278.29;;;26.30;35.94
49657;BME280;71194;38.900;-77.124;2023-08-24T10:41:52;100273.44;;;26.27;36.03
49657;BME280;71194;38.900;-77.124;2023-08-24T10:44:24;100274.88;;;26.29;36.02
49657;BME280;71194;38.900;-77.124;2023-08-24T10:47:11;100282.87;;;26.28;35.89
49657;BME280;71194;38.900;-77.124;2023-08-24T10:49:40;100291.79;;;26.80;35.89
49657;BME280;71194;38.900;-77.124;2023-08-24T10:52:23;100296.66;;;26.38;35.85
49657;BME280;71194;38.900;-77.124;2023-08-24T10:54:52;100291.76;;;26.34;35.93
49657;BME280;71194;38.900;-77.124;2023-08-24T10:57:22;100295.19;;;26.61;35.92
49657;BME280;71194;38.900;-77.124;2023-08-24T11:00:08;100291.64;;;26.32;35.95
49657;BME280;71194;38.900;-77.124;2023-08-24T11:02:45;100289.57;;;26.33;35.87
49657;BME280;71194;38.900;-77.124;2023-08-24T11:05:18;100294.25;;;26.69;35.79
49657;BME280;71194;38.900;-77.124;2023-08-24T11:07:52;100305.32;;;26.40;35.78
49657;BME280;71194;38.900;-77.124;2023-08-24T11:10:20;100302.04;;;26.54;35.64
49657;BME280;71194;38.900;-77.124;2023-08-24T11:13:21;100302.83;;;26.47;35.64
49657;BME280;71194;38.900;-77.124;2023-08-24T11:15:50;100297.29;;;26.58;35.57
49657;BME280;71194;38.900;-77.124;2023-08-24T11:18:23;100295.88;;;26.52;35.81
49657;BME280;71194;38.900;-77.124;2023-08-24T11:20:53;100301.41;;;26.70;35.60
49657;BME280;71194;38.900;-77.124;2023-08-24T11:23:23;100306.61;;;26.61;35.74
49657;BME280;71194;38.900;-77.124;2023-08-24T11:25:53;100295.92;;;26.70;35.63
49657;BME280;71194;38.900;-77.124;2023-08-24T11:28:22;100289.59;;;26.58;35.91
49657;BME280;71194;38.900;-77.124;2023-08-24T11:30:49;100286.48;;;26.85;35.67
49657;BME280;71194;38.900;-77.124;2023-08-24T11:33:26;100289.29;;;26.88;35.54
49657;BME280;71194;38.900;-77.124;2023-08-24T11:35:55;100296.09;;;26.78;35.57
49657;BME280;71194;38.900;-77.124;2023-08-24T11:38:23;100304.52;;;27.01;35.74
49657;BME280;71194;38.900;-77.124;2023-08-24T11:40:51;100312.34;;;26.80;35.70
49657;BME280;71194;38.900;-77.124;2023-08-24T11:43:25;100320.65;;;26.62;35.78
49657;BME280;71194;38.900;-77.124;2023-08-24T11:45:54;100330.25;;;26.79;35.87
49657;BME280;71194;38.900;-77.124;2023-08-24T11:48:25;100324.88;;;26.65;36.09
49657;BME280;71194;38.900;-77.124;2023-08-24T11:50:52;100320.80;;;26.66;36.25
49657;BME280;71194;38.900;-77.124;2023-08-24T11:53:20;100318.20;;;26.68;36.34
49657;BME280;71194;38.900;-77.124;2023-08-24T11:55:49;100323.85;;;26.56;36.39
49657;BME280;71194;38.900;-77.124;2023-08-24T11:58:17;100320.95;;;26.90;36.44
49657;BME280;71194;38.900;-77.124;2023-08-24T12:00:45;100317.17;;;26.93;37.29
49657;BME280;71194;38.900;-77.124;2023-08-24T12:03:13;100319.48;;;27.00;37.89
49657;BME280;71194;38.900;-77.124;2023-08-24T12:05:41;100323.62;;;26.84;38.37
49657;BME280;71194;38.900;-77.124;2023-08-24T12:08:11;100328.13;;;27.11;38.57
49657;BME280;71194;38.900;-77.124;2023-08-24T12:10:42;100334.78;;;27.18;38.79
49657;BME280;71194;38.900;-77.124;2023-08-24T12:13:12;100343.08;;;27.02;38.74
49657;BME280;71194;38.900;-77.124;2023-08-24T12:15:41;100353.81;;;27.13;38.78
49657;BME280;71194;38.900;-77.124;2023-08-24T12:18:09;100367.66;;;27.15;38.36
49657;BME280;71194;38.900;-77.124;2023-08-24T12:20:37;100373.36;;;27.17;37.99
49657;BME280;71194;38.900;-77.124;2023-08-24T12:23:06;100372.80;;;27.29;38.14
49657;BME280;71194;38.900;-77.124;2023-08-24T12:25:37;100359.92;;;27.75;38.11
49657;BME280;71194;38.900;-77.124;2023-08-24T12:28:10;100356.21;;;27.54;37.97
49657;BME280;71194;38.900;-77.124;2023-08-24T12:30:53;100361.27;;;27.60;37.73
49657;BME280;71194;38.900;-77.124;2023-08-24T12:33:23;100362.97;;;27.86;37.60
49657;BME280;71194;38.900;-77.124;2023-08-24T12:35:51;100357.78;;;27.46;37.52
49657;BME280;71194;38.900;-77.124;2023-08-24T12:38:19;100353.20;;;27.78;37.31
49657;BME280;71194;38.900;-77.124;2023-08-24T12:40:47;100351.22;;;27.75;37.34